RPVP

Details ICAO RPVP (PPS)
Name PUERTO PRINCESA
Region Philippines
Timezone Asia/Manila (UTC+8.0)
Plans Departing 25
Arriving 52
Stats Elevation 71 ft / 22 m (AMSL)
Location 9.742119° 118.758730°
Runways 1
Magnetic Variation 1.154° W
Sunrise 2017-12-12 22:13:35 UTC / 2017-12-13 06:13:35 Local
Sunset 2017-12-13 09:47:17 UTC / 2017-12-13 17:47:17 Local
Advertisement - Login to hide

Runways

ID Width Length Bearing (true) Bearing (mag) Surface Threshold Offset Overrun Length
09 148 ft / 45 m 8,526 ft / 2,599 m 92.52° 93.67° Concrete 0 ft / 0 m 560 ft / 171 m
27 148 ft / 45 m 8,526 ft / 2,599 m 272.52° 273.67° Concrete 0 ft / 0 m 574 ft / 175 m

Map

Weather


0- 5 10 15 20 25 30 35+ Temperature / ° C

Clouds and Precipitation
Forecast for 2017-12-13 06:00 UTC. Updated an hour ago

Ground ~20,000 ft ~40,000 ft Winds

METAR

RPVP 130200Z 34004KT 9999 FEW019 BKN240 29/25 Q1010 RMK A2983

TAF

Not found

Frequencies

Tower 118.10 MHz TWR
Approach 122.00 MHz APP
Warning: Do not use this data for real-world aviation or navigation. No guarantee of current accuracy is given.